Hayesville, NC (28904)

1:35 AM EDT on August 28, 2015 (GMT -0400)
Elf School Road | | Change Station
CLOSE
Current Station
Personal Weather Station
Location: Hayesville, NC
Elevation: 1985 ft
Nearby Weather Stations

Elev 1985 ft 35.02 °N, 83.74 °W | Updated 6 minutes ago

Partly Cloudy
Partly Cloudy
64.2 °F
Feels Like 64.2 °F
N
2.0
Wind Variable Wind from ENE
Gusts 4.0 mph

Today
High -- | Low -- °F
--% Chance of Precip.
Yesterday
High -- | Low -- °F
Precip. -- in
7:04 AM 8:07 PM
Waxing Gibbous, 96% visible
Pressure 30.14 in
Visibility 7.0 miles
Clouds Scattered Clouds 4800 ft
Dew Point 62 °F
Humidity 92%
Rainfall 0.00 in
Snow Depth Not available.
UV 0 out of 12
Pollen 8.90 out of 12
Air Quality Not available.
Flu Activity Not available.
METAR KRHP 280515Z AUTO 00000KT 7SM SCT048 17/17 A3014 RMK AO2 T01690169
Pressure 30.14 in
Visibility 7.0 miles
Clouds Scattered Clouds 4800 ft
Dew Point 62 °F
Humidity 92%
Rainfall 0.00 in
Snow Depth Not available.
UV 0 out of 12
Pollen 8.90 out of 12
Air Quality Not available.
Flu Activity Not available.
METAR KRHP 280515Z AUTO 00000KT 7SM SCT048 17/17 A3014 RMK AO2 T01690169

10-Day Weather Forecast

×

Almanac

Astronomy

Aug. 28, 2015 Rise Set
Actual Time
Civil Twilight
Nautical Twilight
Astronomical Twilight
Moon
Length of Visible Light
Length of Day
Tomorrow will be .
, % of the Moon is Illuminated

Today's Extremes

State Highs State Lows

Community

WunderPhotos

Upload Photos

1,850,341 photos uploaded!

WunderBlogs® & News

Nearby

Air Quality

  Air Quality AQ Index Pollutant
Not available.

Snow Depth

Station Depth Elevation

Earthquake Activity

City Distance Mag. Time & Date
Minimum magnitude displayed is 2.5.

Coastal Water Temperatures

Place Temperature

Stations

Nearby Weather Stations

Station Location Temp. Windchill Dew Point Humidity Wind Precip. Elev Updated Type